Latest Weather Observations for Bega

IDN60801

Issued at 5:22 pm EST Friday 22 June 2018 (issued every 10 minutes, with the page automatically refreshed every 10 minutes)

About weather observations | Map of weather stations | Latest weather observations for NSW | Other Formats
Station Details ID: 069139 Name: BEGA AWS Lat: -36.67 Lon: 149.82 Height: 41.0 m
Data from the previous 72 hours. | See also: Recent months at Bega
Date/Time
EST
Temp
°C
App
Temp
°C
Dew
Point
°C
Rel
Hum
%
Delta-T
°C
Wind Press
QNH
hPa
Press
MSL
hPa
Rain since
9am
mm
Dir  Spd
km/h
Gust
km/h
Spd
kts
Gust
kts
22/05:00pm 11.6 10.1 6.9 73 2.2 SSE 4 7 2 4 1025.7 1025.8 0.0
22/04:30pm 12.5 10.1 7.0 69 2.7 ESE 9 11 5 6 1025.5 1025.6 0.0
22/04:00pm 13.3 11.0 7.3 67 2.9 ESE 9 13 5 7 1025.5 1025.6 0.0
22/03:30pm 14.1 11.0 7.2 63 3.4 ESE 13 15 7 8 1025.5 1025.6 0.0
22/03:00pm 14.7 11.5 7.0 60 3.7 E 13 17 7 9 1025.4 1025.5 0.0
22/02:30pm 15.4 13.5 6.9 57 4.2 ESE 6 9 3 5 1025.3 1025.4 0.0
22/02:00pm 15.3 13.3 7.1 58 4.0 ESE 7 15 4 8 1025.4 1025.5 0.0
22/01:30pm 15.8 14.0 7.3 57 4.2 ENE 6 9 3 5 1025.7 1025.8 0.0
22/01:00pm 14.5 13.4 7.1 61 3.6 S 2 7 1 4 1026.1 1026.2 0.0
22/12:30pm 14.9 13.8 6.7 58 4.0 N 2 6 1 3 1026.5 1026.6 0.0
22/12:00pm 12.5 11.2 6.1 65 3.0 SSE 2 6 1 3 1027.3 1027.4 0.0
22/11:30am 10.5 9.3 6.3 75 2.0 E 2 7 1 4 1027.9 1028.0 0.0
22/11:00am 8.4 7.3 5.3 81 1.4 CALM 0 0 0 0 1028.5 1028.6 0.0
22/10:30am 6.7 5.5 4.7 87 0.9 CALM 0 0 0 0 1028.8 1028.9 0.0
22/10:00am 5.8 4.5 4.0 88 0.8 CALM 0 0 0 0 1028.9 1029.0 0.0
22/09:30am 3.5 2.0 3.1 97 0.2 CALM 0 0 0 0 1029.0 1029.1 0.0
22/09:00am 1.5 -1.4 1.4 99 0.0 S 6 7 3 4 1028.9 1029.0 0.0
22/08:30am -0.4 -3.6 -0.5 99 0.0 SSW 6 7 3 4 1028.7 1028.8 0.0
22/08:00am -0.9 -3.0 -1.0 99 0.0 CALM 0 0 0 0 1028.8 1028.9 0.0
22/07:30am -1.4 -3.6 -1.5 99 0.0 CALM 0 0 0 0 1028.7 1028.8 0.0
22/07:00am -0.9 -3.0 -1.0 99 0.0 CALM 0 0 0 0 1028.4 1028.5 0.0
22/06:30am -1.0 -3.1 -1.1 99 0.0 CALM 0 0 0 0 1028.1 1028.2 0.0
22/06:00am -0.2 -2.2 -0.3 99 0.0 CALM 0 0 0 0 1028.0 1028.1 0.0
22/05:30am 0.0 -2.0 -0.1 99 0.0 CALM 0 0 0 0 1027.9 1028.0 0.0
22/05:00am -0.1 -2.1 -0.2 99 0.0 CALM 0 0 0 0 1027.9 1028.0 0.0
22/04:30am 0.1 -1.9 0.0 99 0.0 CALM 0 0 0 0 1027.7 1027.8 0.0
22/04:00am 0.1 -1.9 0.0 99 0.0 CALM 0 0 0 0 1027.7 1027.8 0.0
22/03:30am 0.6 -1.3 0.3 98 0.1 CALM 0 0 0 0 1027.8 1027.9 0.0
22/03:00am 1.2 -0.6 1.1 99 0.0 CALM 0 0 0 0 1028.0 1028.1 0.0
22/02:30am 1.5 -0.3 1.4 99 0.0 CALM 0 6 0 3 1028.1 1028.2 0.0
22/02:00am 1.9 -0.2 1.8 99 0.0 WSW 2 7 1 4 1028.3 1028.4 0.0
22/01:30am 1.0 -0.9 0.7 98 0.1 CALM 0 0 0 0 1028.3 1028.4 0.0
22/01:00am 2.0 0.3 1.9 99 0.0 CALM 0 0 0 0 1028.3 1028.4 0.0
22/12:30am 1.7 -0.1 1.0 95 0.3 CALM 0 0 0 0 1028.5 1028.6 0.0
22/12:00am 3.3 1.8 2.9 97 0.2 CALM 0 0 0 0 1028.6 1028.7 0.0
 
Date/Time
EST
Temp
°C
App
Temp
°C
Dew
Point
°C
Rel
Hum
%
Delta-T
°C
Wind Press
QNH
hPa
Press
MSL
hPa
Rain since
9am
mm
Dir  Spd
km/h
Gust
km/h
Spd
kts
Gust
kts
21/11:30pm 2.9 1.4 2.8 99 0.0 CALM 0 0 0 0 1028.8 1028.9 0.0
21/11:00pm 2.1 0.0 1.5 96 0.2 S 2 6 1 3 1028.8 1028.9 0.0
21/10:30pm 3.0 1.4 2.3 95 0.3 CALM 0 0 0 0 1028.7 1028.8 0.0
21/10:00pm 3.8 1.5 2.9 94 0.4 N 4 7 2 4 1028.8 1028.9 0.0
21/09:30pm 4.0 2.4 2.7 91 0.5 CALM 0 0 0 0 1028.8 1028.9 0.0
21/09:00pm 4.6 3.2 3.6 93 0.4 CALM 0 0 0 0 1028.7 1028.8 0.0
21/08:30pm 4.5 3.0 2.8 89 0.7 CALM 0 0 0 0 1028.7 1028.8 0.0
21/08:00pm 6.2 4.9 3.9 85 1.0 CALM 0 0 0 0 1028.6 1028.7 0.0
21/07:30pm 5.4 3.9 2.9 84 1.0 CALM 0 0 0 0 1028.4 1028.5 0.0
21/07:00pm 6.4 5.0 3.4 81 1.3 CALM 0 0 0 0 1028.2 1028.3 0.0
21/06:30pm 8.2 6.9 3.9 74 1.9 CALM 0 0 0 0 1027.9 1028.0 0.0
21/06:00pm 9.3 7.9 3.5 67 2.5 CALM 0 0 0 0 1027.7 1027.8 0.0
21/05:00pm 12.2 10.8 3.7 56 3.8 CALM 0 0 0 0 1027.0 1027.1 0.0
21/04:30pm 13.2 10.1 3.8 53 4.2 E 9 13 5 7 1026.8 1026.9 0.0
21/04:00pm 14.0 10.4 2.9 47 4.9 E 11 17 6 9 1026.6 1026.7 0.0
21/03:30pm 14.6 10.2 2.8 45 5.3 ESE 15 19 8 10 1026.4 1026.5 0.0
21/03:00pm 16.2 13.1 3.6 43 5.8 E 9 15 5 8 1026.1 1026.2 0.0
21/02:30pm 16.4 12.9 1.3 36 6.6 E 9 13 5 7 1026.1 1026.2 0.0
21/02:00pm 17.1 14.9 3.4 40 6.3 NE 4 11 2 6 1026.3 1026.4 0.0
21/01:30pm 16.3 13.5 2.3 39 6.3 ENE 6 9 3 5 1026.5 1026.6 0.0
21/01:00pm 15.8 13.9 6.5 54 4.5 NE 6 9 3 5 1026.8 1026.9 0.0
21/12:30pm 14.8 12.9 6.9 59 3.9 NE 6 7 3 4 1027.1 1027.2 0.0
21/12:00pm 13.6 12.5 6.9 64 3.2 NE 2 7 1 4 1027.7 1027.8 0.0
21/11:30am 11.9 11.2 6.8 71 2.4 CALM 0 0 0 0 1028.3 1028.4 0.0
21/11:00am 9.1 8.1 5.8 80 1.5 CALM 0 0 0 0 1028.8 1028.9 0.0
21/10:30am 7.4 5.9 5.2 86 1.0 SSE 2 6 1 3 1028.9 1029.0 0.0
21/10:00am 6.6 5.5 5.1 90 0.7 CALM 0 6 0 3 1029.2 1029.3 0.0
21/09:30am 5.1 4.0 5.0 99 0.0 CALM 0 0 0 0 1029.3 1029.4 0.0
21/09:00am 2.5 0.9 2.4 99 0.0 CALM 0 0 0 0 1029.4 1029.5 0.2
21/08:30am 2.0 0.3 1.9 99 0.0 CALM 0 0 0 0 1029.3 1029.4 0.2
21/08:00am 0.7 -1.2 0.6 99 0.0 CALM 0 0 0 0 1029.2 1029.3 0.2
21/07:30am -0.5 -2.6 -0.6 99 0.0 CALM 0 0 0 0 1029.0 1029.1 0.2
21/07:00am -0.4 -2.5 -0.5 99 0.0 CALM 0 0 0 0 1028.7 1028.8 0.2
21/06:30am -0.2 -2.2 -0.3 99 0.0 CALM 0 0 0 0 1028.4 1028.5 0.0
21/06:00am 0.1 -1.9 0.0 99 0.0 CALM 0 0 0 0 1028.2 1028.3 0.0
21/05:30am 0.4 -1.5 0.3 99 0.0 CALM 0 0 0 0 1027.9 1028.0 0.0
21/05:00am 1.1 -0.7 1.0 99 0.0 CALM 0 0 0 0 1027.9 1028.0 0.0
21/04:30am 0.9 -1.0 0.8 99 0.0 CALM 0 0 0 0 1027.7 1027.8 0.0
21/04:00am 0.9 -1.0 0.8 99 0.0 CALM 0 0 0 0 1027.7 1027.8 0.0
21/03:30am 1.6 -0.2 1.5 99 0.0 CALM 0 0 0 0 1027.8 1027.9 0.0
21/03:00am 2.2 0.5 2.1 99 0.0 CALM 0 0 0 0 1028.0 1028.1 0.0
21/02:30am 1.5 -0.3 1.4 99 0.0 CALM 0 0 0 0 1028.2 1028.3 0.0
21/02:00am 1.9 0.2 1.8 99 0.0 CALM 0 0 0 0 1028.1 1028.2 0.0
21/01:30am 2.3 0.7 2.2 99 0.0 CALM 0 0 0 0 1028.1 1028.2 0.0
21/01:00am 2.3 0.7 2.2 99 0.0 CALM 0 0 0 0 1028.1 1028.2 0.0
21/12:30am 3.0 1.5 2.9 99 0.0 CALM 0 0 0 0 1028.2 1028.3 0.0
21/12:00am 3.0 1.5 2.9 99 0.0 CALM 0 0 0 0 1028.4 1028.5 0.0
 
Date/Time
EST
Temp
°C
App
Temp
°C
Dew
Point
°C
Rel
Hum
%
Delta-T
°C
Wind Press
QNH
hPa
Press
MSL
hPa
Rain since
9am
mm
Dir  Spd
km/h
Gust
km/h
Spd
kts
Gust
kts
20/11:30pm 3.0 1.4 2.6 97 0.2 CALM 0 0 0 0 1028.5 1028.6 0.0
20/11:00pm 4.3 3.0 4.2 99 0.0 CALM 0 0 0 0 1028.5 1028.6 0.0
20/10:30pm 4.8 3.6 4.7 99 0.0 CALM 0 0 0 0 1028.5 1028.6 0.0
20/10:00pm 3.8 2.3 3.2 96 0.2 CALM 0 0 0 0 1028.5 1028.6 0.0
20/09:30pm 4.2 2.8 3.6 96 0.2 CALM 0 0 0 0 1028.6 1028.7 0.0
20/09:00pm 5.5 4.4 4.9 96 0.3 CALM 0 0 0 0 1028.7 1028.8 0.0
20/08:30pm 6.1 5.0 5.2 94 0.4 CALM 0 0 0 0 1028.7 1028.8 0.0
20/08:00pm 6.3 5.2 5.3 93 0.4 CALM 0 4 0 2 1028.7 1028.8 0.0
20/07:30pm 6.4 5.3 5.0 91 0.6 CALM 0 0 0 0 1028.6 1028.7 0.0
20/07:00pm 7.3 6.3 5.4 88 0.8 CALM 0 0 0 0 1028.3 1028.4 0.0
20/06:30pm 8.3 6.6 5.8 84 1.1 S 4 7 2 4 1028.1 1028.2 0.0
20/06:00pm 9.8 9.0 6.5 80 1.5 CALM 0 0 0 0 1027.9 1028.0 0.0
20/05:30pm 10.9 9.0 6.6 75 2.0 NW 6 7 3 4 1027.7 1027.8 0.0
20/05:00pm 12.6 10.6 6.4 66 2.9 NNW 6 7 3 4 1027.6 1027.7 0.0
20/04:30pm 13.1 11.0 6.5 64 3.2 N 7 9 4 5 1027.6 1027.7 0.0
20/04:00pm 14.4 12.2 6.3 58 3.9 NNE 7 9 4 5 1027.7 1027.8 0.0
20/03:30pm 15.5 13.2 5.7 52 4.7 NE 7 9 4 5 1027.6 1027.7 0.0
20/03:00pm 15.6 13.6 4.6 48 5.1 N 4 7 2 4 1027.6 1027.7 0.0
20/02:30pm 15.9 15.1 6.3 53 4.7 CALM 0 0 0 0 1027.7 1027.8 0.0
20/02:00pm 15.2 14.5 7.0 58 4.0 CALM 0 0 0 0 1027.8 1027.9 0.0
20/01:30pm 15.1 14.0 8.3 64 3.4 N 4 9 2 5 1028.0 1028.1 0.0
20/01:00pm 15.6 14.3 9.3 66 3.2 NE 6 7 3 4 1028.2 1028.3 0.0
20/12:30pm 14.1 14.0 9.3 73 2.5 CALM 0 0 0 0 1028.6 1028.7 0.0
20/12:00pm 12.6 12.5 9.4 81 1.6 CALM 0 0 0 0 1029.1 1029.2 0.0
20/11:30am 11.9 10.6 9.3 84 1.3 E 6 7 3 4 1029.6 1029.7 0.0
20/11:00am 11.3 11.0 8.7 84 1.3 CALM 0 7 0 4 1029.9 1030.0 0.0
20/10:30am 10.6 9.9 8.4 86 1.1 ESE 2 7 1 4 1030.1 1030.2 0.0
20/10:00am 9.4 9.1 8.8 96 0.3 CALM 0 6 0 3 1030.2 1030.3 0.0
20/09:30am 7.8 6.8 7.5 98 0.1 S 2 7 1 4 1030.3 1030.4 0.0
20/09:00am 7.1 6.4 6.8 98 0.1 CALM 0 0 0 0 1030.1 1030.2 0.6
20/08:30am 6.2 4.9 6.1 99 0.0 NE 2 7 1 4 1029.7 1029.8 0.6
20/08:00am 5.0 2.7 4.9 99 0.0 SSW 6 9 3 5 1029.4 1029.5 0.6
20/07:30am 4.8 3.6 4.7 99 0.0 CALM 0 0 0 0 1029.0 1029.1 0.6
20/07:00am 5.9 4.2 5.8 99 0.0 NNW 4 7 2 4 1028.8 1028.9 0.6
20/06:30am 5.4 4.3 5.3 99 0.0 CALM 0 0 0 0 1028.8 1028.9 0.6
20/06:00am 6.4 5.6 6.3 99 0.0 CALM 0 0 0 0 1028.7 1028.8 0.6
20/05:30am 6.5 5.6 6.2 98 0.1 CALM 0 0 0 0 1028.6 1028.7 0.6
20/05:00am 7.0 6.2 6.7 98 0.1 CALM 0 0 0 0 1028.7 1028.8 0.6
20/04:30am 7.6 7.0 7.2 97 0.2 CALM 0 0 0 0 1028.8 1028.9 0.6
20/04:00am 7.9 6.9 7.3 96 0.3 N 2 7 1 4 1028.9 1029.0 0.6
20/03:30am 8.2 7.7 7.9 98 0.1 CALM 0 0 0 0 1029.2 1029.3 0.6
20/03:00am 8.4 8.0 8.1 98 0.1 CALM 0 0 0 0 1029.3 1029.4 0.6
20/02:30am 8.3 7.1 7.9 97 0.2 NE 4 7 2 4 1029.2 1029.3 0.6
20/02:00am 7.9 7.3 7.3 96 0.3 CALM 0 0 0 0 1028.9 1029.0 0.6
20/01:30am 8.7 8.3 8.3 97 0.2 CALM 0 0 0 0 1028.8 1028.9 0.6
20/01:00am 8.2 7.7 7.8 97 0.2 CALM 0 0 0 0 1028.6 1028.7 0.6
20/12:30am 8.5 8.1 8.1 97 0.2 CALM 0 0 0 0 1028.5 1028.6 0.6
20/12:00am 8.5 8.1 8.1 97 0.2 CALM 0 0 0 0 1028.4 1028.5 0.6
 
Date/Time
EST
Temp
°C
App
Temp
°C
Dew
Point
°C
Rel
Hum
%
Delta-T
°C
Wind Press
QNH
hPa
Press
MSL
hPa
Rain since
9am
mm
Dir  Spd
km/h
Gust
km/h
Spd
kts
Gust
kts
19/11:30pm 8.3 7.8 7.7 96 0.3 CALM 0 0 0 0 1028.5 1028.6 0.6
19/11:00pm 8.7 8.2 7.8 94 0.4 CALM 0 0 0 0 1028.6 1028.7 0.6
19/10:30pm 9.4 8.9 7.8 90 0.8 CALM 0 6 0 3 1028.6 1028.7 0.6
19/10:00pm 9.6 8.4 7.9 89 0.8 E 4 7 2 4 1028.5 1028.6 0.6
19/09:30pm 10.5 8.6 7.6 82 1.4 SW 7 11 4 6 1028.4 1028.5 0.6
19/09:00pm 10.5 8.8 7.7 83 1.3 SSW 6 7 3 4 1028.6 1028.7 0.6
19/08:30pm 11.2 10.7 7.7 79 1.7 CALM 0 2 0 1 1028.8 1028.9 0.6
19/08:00pm 12.1 9.5 7.8 75 2.1 SW 11 17 6 9 1028.8 1028.9 0.6
19/07:30pm 12.1 9.2 8.0 76 2.0 SW 13 20 7 11 1028.7 1028.8 0.6
19/07:00pm 12.1 8.4 7.8 75 2.1 WSW 17 24 9 13 1028.4 1028.5 0.6
19/06:30pm 11.8 8.1 7.9 77 1.9 SW 17 20 9 11 1028.0 1028.1 0.6
19/06:00pm 12.5 8.4 8.0 74 2.2 WSW 19 28 10 15 1027.6 1027.7 0.6
19/05:30pm 12.6 8.7 8.5 76 2.0 SW 19 30 10 16 1027.4 1027.5 0.6

Other Formats:

Comma delimited format used in spreadsheet applications
http://www.bom.gov.au/fwo/IDN60801/IDN60801.95931.axf

JavaScript Object Notation format (JSON) in row-major order
http://www.bom.gov.au/fwo/IDN60801/IDN60801.95931.json